createdAt,value
2019-04-06T00:01:47.959Z,14.03
2019-04-06T00:04:16.437Z,14.27
2019-04-06T00:06:44.954Z,13.50
2019-04-06T00:09:13.410Z,14.17
2019-04-06T00:11:42.041Z,13.90
2019-04-06T00:14:10.484Z,13.67
2019-04-06T00:16:38.929Z,14.87
2019-04-06T00:19:07.469Z,14.87
2019-04-06T00:21:35.916Z,13.80
2019-04-06T00:24:04.573Z,14.60
2019-04-06T00:26:33.050Z,15.20
2019-04-06T00:29:01.485Z,15.87
2019-04-06T00:31:31.570Z,15.20
2019-04-06T00:34:00.509Z,16.40
2019-04-06T00:36:29.015Z,14.40
2019-04-06T00:38:57.462Z,15.77
2019-04-06T00:41:26.122Z,15.23
2019-04-06T00:43:54.596Z,14.20
2019-04-06T00:46:23.089Z,16.57
2019-04-06T00:48:51.562Z,16.70
2019-04-06T00:51:20.002Z,16.70
2019-04-06T00:53:48.449Z,15.20
2019-04-06T00:56:16.960Z,15.93
2019-04-06T00:58:45.437Z,15.13
2019-04-06T01:01:14.095Z,15.17
2019-04-06T01:03:42.674Z,15.50
2019-04-06T01:06:11.198Z,16.57
2019-04-06T01:08:39.645Z,16.60
2019-04-06T01:11:08.195Z,15.67
2019-04-06T01:13:36.647Z,16.47
2019-04-06T01:16:05.229Z,16.30
2019-04-06T01:18:33.765Z,16.63
2019-04-06T01:21:02.277Z,16.37
2019-04-06T01:23:30.727Z,16.20
2019-04-06T01:26:06.971Z,16.83
2019-04-06T01:28:29.366Z,15.50
2019-04-06T01:30:57.815Z,15.23
2019-04-06T01:33:26.305Z,14.67
2019-04-06T01:35:55.378Z,14.80
2019-04-06T01:38:23.882Z,14.53
2019-04-06T01:40:52.540Z,14.80
2019-04-06T01:43:21.054Z,15.37
2019-04-06T01:45:50.424Z,15.63
2019-04-06T01:48:19.061Z,15.60
2019-04-06T01:50:47.510Z,15.40
2019-04-06T01:53:16.019Z,14.47
2019-04-06T01:55:44.759Z,16.03
2019-04-06T01:58:13.344Z,15.50
2019-04-06T02:00:43.626Z,15.73
2019-04-06T02:03:12.311Z,13.53
2019-04-06T02:05:40.957Z,14.57
2019-04-06T02:08:09.523Z,13.17
2019-04-06T02:10:38.191Z,13.27
2019-04-06T02:13:06.903Z,14.07
2019-04-06T02:15:35.630Z,14.47
2019-04-06T02:18:05.941Z,13.73
2019-04-06T02:20:34.898Z,13.60
2019-04-06T02:23:03.599Z,14.03
2019-04-06T02:25:32.287Z,14.60
2019-04-06T02:28:00.855Z,14.30
2019-04-06T02:30:31.141Z,13.47
2019-04-06T02:33:04.313Z,14.40
2019-04-06T02:35:37.822Z,14.57
2019-04-06T02:38:14.284Z,13.23
2019-04-06T02:40:47.296Z,13.00
2019-04-06T02:43:24.104Z,13.13
2019-04-06T02:45:52.747Z,12.93
2019-04-06T02:48:21.617Z,12.60
2019-04-06T02:50:50.269Z,13.00
2019-04-06T02:53:18.969Z,14.40
2019-04-06T02:55:47.679Z,14.13
2019-04-06T02:58:16.436Z,14.57
2019-04-06T03:00:45.210Z,14.00
2019-04-06T03:03:14.157Z,13.80
2019-04-06T03:05:42.820Z,13.13
2019-04-06T03:08:11.559Z,12.07
2019-04-06T03:10:40.252Z,12.07
2019-04-06T03:13:09.726Z,12.57
2019-04-06T03:15:38.711Z,11.60
2019-04-06T03:18:07.440Z,10.90
2019-04-06T03:20:36.469Z,10.30
2019-04-06T03:23:05.226Z,10.83
2019-04-06T03:25:33.869Z,9.43
2019-04-06T03:28:02.731Z,9.37
2019-04-06T03:30:31.443Z,9.77
2019-04-06T03:33:00.147Z,11.33
2019-04-06T03:35:29.037Z,11.13
2019-04-06T03:37:57.753Z,11.67
2019-04-06T03:40:26.423Z,11.33
2019-04-06T03:42:55.141Z,12.13
2019-04-06T03:45:23.798Z,12.47
2019-04-06T03:47:52.408Z,12.17
2019-04-06T03:50:21.287Z,12.03
2019-04-06T03:52:49.867Z,13.37
2019-04-06T03:55:18.429Z,13.60
2019-04-06T03:57:47.105Z,14.80
2019-04-06T04:00:16.306Z,12.70
2019-04-06T04:02:44.920Z,11.70
2019-04-06T04:05:14.023Z,12.70
2019-04-06T04:07:42.692Z,12.80
2019-04-06T04:10:14.409Z,13.50
2019-04-06T04:12:43.083Z,14.97
2019-04-06T04:15:12.027Z,14.47
2019-04-06T04:17:40.539Z,14.00
2019-04-06T04:20:09.379Z,14.60
2019-04-06T04:22:38.012Z,14.20
2019-04-06T04:25:07.057Z,14.53
2019-04-06T04:27:35.729Z,14.30
2019-04-06T04:30:06.875Z,13.23
2019-04-06T04:32:35.740Z,14.73
2019-04-06T04:35:05.398Z,13.57
2019-04-06T04:37:34.041Z,15.03
2019-04-06T04:40:02.780Z,14.73
2019-04-06T04:42:31.369Z,13.57
2019-04-06T04:44:59.936Z,13.60
2019-04-06T04:47:28.896Z,12.60
2019-04-06T04:49:57.584Z,12.33
2019-04-06T04:52:26.465Z,11.97
2019-04-06T04:54:55.307Z,11.83
2019-04-06T04:57:23.953Z,11.60
2019-04-06T04:59:52.532Z,12.17
2019-04-06T05:02:21.132Z,12.27
2019-04-06T05:04:50.074Z,12.40
2019-04-06T05:07:18.859Z,11.80
2019-04-06T05:09:47.571Z,11.17
2019-04-06T05:12:16.134Z,10.33
2019-04-06T05:15:01.656Z,11.67
2019-04-06T05:17:30.363Z,11.43
2019-04-06T05:19:59.185Z,10.13
2019-04-06T05:22:27.991Z,11.33
2019-04-06T05:24:56.729Z,11.23
2019-04-06T05:27:25.367Z,11.67
2019-04-06T05:29:54.109Z,11.57
2019-04-06T05:32:22.834Z,11.00
2019-04-06T05:34:51.413Z,11.73
2019-04-06T05:37:20.119Z,11.07
2019-04-06T05:39:48.859Z,11.87
2019-04-06T05:42:17.514Z,11.80
2019-04-06T05:44:46.311Z,10.90
2019-04-06T05:47:15.135Z,11.40
2019-04-06T05:49:44.001Z,12.07
2019-04-06T05:52:12.860Z,12.93
2019-04-06T05:54:41.527Z,13.03
2019-04-06T05:57:10.164Z,14.07
2019-04-06T05:59:40.953Z,12.30
2019-04-06T06:02:10.032Z,12.73
2019-04-06T06:04:40.541Z,12.47
2019-04-06T06:07:09.489Z,13.37
2019-04-06T06:09:38.199Z,15.07
2019-04-06T06:12:07.982Z,13.17
2019-04-06T06:14:36.656Z,13.60
2019-04-06T06:17:05.470Z,12.70
2019-04-06T06:19:34.164Z,13.07
2019-04-06T06:22:02.932Z,14.33
2019-04-06T06:24:31.529Z,12.47
2019-04-06T06:27:00.236Z,14.43
2019-04-06T06:29:28.875Z,13.70
2019-04-06T06:31:57.617Z,12.73
2019-04-06T06:34:26.258Z,12.17
2019-04-06T06:36:54.924Z,11.63
2019-04-06T06:39:23.761Z,11.97
2019-04-06T06:41:52.501Z,12.00
2019-04-06T06:44:21.273Z,12.90
2019-04-06T06:46:50.038Z,12.43
2019-04-06T06:49:18.700Z,12.33
2019-04-06T06:51:47.358Z,12.93
2019-04-06T06:54:16.103Z,13.50
2019-04-06T06:56:44.808Z,12.83
2019-04-06T06:59:13.511Z,12.60
2019-04-06T07:01:42.183Z,13.37
2019-04-06T07:04:10.892Z,14.23
2019-04-06T07:06:39.581Z,14.13
2019-04-06T07:09:08.686Z,13.63
2019-04-06T07:11:37.330Z,13.63
2019-04-06T07:14:06.181Z,14.60
2019-04-06T07:16:34.885Z,14.70
2019-04-06T07:19:03.627Z,14.00
2019-04-06T07:21:32.337Z,14.90
2019-04-06T07:24:01.046Z,14.43
2019-04-06T07:26:29.846Z,15.20
2019-04-06T07:28:58.439Z,15.07
2019-04-06T07:31:27.478Z,15.63
2019-04-06T07:33:56.119Z,14.93
2019-04-06T07:36:24.691Z,14.90
2019-04-06T07:38:53.291Z,14.70
2019-04-06T07:41:22.022Z,15.83
2019-04-06T07:43:50.670Z,15.63
2019-04-06T07:46:19.474Z,15.20
2019-04-06T07:48:48.262Z,15.57
2019-04-06T07:51:16.909Z,15.80
2019-04-06T07:53:45.614Z,15.53
2019-04-06T07:56:14.359Z,16.83
2019-04-06T07:58:48.351Z,15.80
2019-04-06T08:01:13.324Z,14.93
2019-04-06T08:03:41.959Z,15.57
2019-04-06T08:06:10.644Z,16.27
2019-04-06T08:08:39.283Z,15.70
2019-04-06T08:11:08.080Z,16.80
2019-04-06T08:13:37.041Z,15.37
2019-04-06T08:16:05.845Z,15.80
2019-04-06T08:18:34.676Z,17.17
2019-04-06T08:21:03.354Z,16.50
2019-04-06T08:23:31.994Z,16.67
2019-04-06T08:26:00.743Z,15.93
2019-04-06T08:28:29.326Z,17.00
2019-04-06T08:30:58.163Z,17.53
2019-04-06T08:33:26.739Z,16.27
2019-04-06T08:35:55.344Z,16.53
2019-04-06T08:38:24.012Z,16.97
2019-04-06T08:40:52.664Z,17.73
2019-04-06T08:43:21.336Z,16.27
2019-04-06T08:45:50.051Z,16.90
2019-04-06T08:48:18.697Z,16.13
2019-04-06T08:50:47.503Z,16.80
2019-04-06T08:53:16.306Z,17.83
2019-04-06T08:55:44.948Z,16.37
2019-04-06T08:58:13.529Z,15.80
2019-04-06T09:00:42.235Z,16.47
2019-04-06T09:03:11.154Z,16.43
2019-04-06T09:05:39.799Z,17.77
2019-04-06T09:08:08.468Z,17.67
2019-04-06T09:10:37.106Z,16.40
2019-04-06T09:13:05.913Z,18.17
2019-04-06T09:15:34.637Z,17.13
2019-04-06T09:18:03.208Z,18.20
2019-04-06T09:20:31.884Z,18.47
2019-04-06T09:23:00.627Z,17.13
2019-04-06T09:25:29.383Z,16.83
2019-04-06T09:27:57.964Z,17.10
2019-04-06T09:30:26.876Z,18.87
2019-04-06T09:32:55.263Z,17.83
2019-04-06T09:35:23.850Z,16.10
2019-04-06T09:37:52.595Z,16.77
2019-04-06T09:40:21.457Z,17.57
2019-04-06T09:42:50.343Z,17.20
2019-04-06T09:45:26.800Z,17.47
2019-04-06T09:48:16.661Z,18.13
2019-04-06T09:50:47.167Z,17.50
2019-04-06T09:53:17.711Z,17.73
2019-04-06T09:56:00.126Z,17.63
2019-04-06T09:58:46.811Z,17.50
2019-04-06T10:01:19.856Z,18.73
2019-04-06T10:03:52.564Z,17.63
2019-04-06T10:06:23.176Z,18.50
2019-04-06T10:08:56.631Z,17.47
2019-04-06T10:11:45.022Z,19.37
2019-04-06T10:14:15.376Z,18.47
2019-04-06T10:16:48.543Z,18.40
2019-04-06T10:19:35.453Z,18.97
2019-04-06T10:22:11.463Z,18.87
2019-04-06T10:24:41.848Z,18.90
2019-04-06T10:27:21.392Z,18.60
2019-04-06T10:29:51.672Z,21.13
2019-04-06T10:32:27.869Z,19.27
2019-04-06T10:35:00.866Z,18.00
2019-04-06T10:37:34.356Z,19.27
2019-04-06T10:40:05.195Z,18.80
2019-04-06T10:42:41.953Z,19.53
2019-04-06T10:45:12.380Z,19.10
2019-04-06T10:47:48.761Z,19.70
2019-04-06T10:50:28.438Z,18.73
2019-04-06T10:53:04.759Z,18.77
2019-04-06T10:55:38.182Z,19.27
2019-04-06T10:58:24.563Z,20.92
2019-04-06T11:00:54.777Z,20.27
2019-04-06T11:03:25.188Z,19.35
2019-04-06T11:06:01.999Z,18.07
2019-04-06T11:08:50.447Z,18.00
2019-04-06T11:11:32.974Z,20.17
2019-04-06T11:14:19.398Z,20.10
2019-04-06T11:16:49.758Z,18.70
2019-04-06T11:19:35.143Z,20.32
2019-04-06T11:22:20.915Z,18.55
2019-04-06T11:25:06.347Z,18.67
2019-04-06T11:27:52.809Z,17.85
2019-04-06T11:30:25.978Z,17.60
2019-04-06T11:33:11.115Z,18.37
2019-04-06T11:35:57.720Z,16.75
2019-04-06T11:38:31.305Z,17.77
2019-04-06T11:41:13.620Z,18.37
2019-04-06T11:43:43.955Z,18.40
2019-04-06T11:46:14.274Z,17.95
2019-04-06T11:48:56.651Z,17.70
2019-04-06T11:51:29.960Z,16.40
2019-04-06T11:54:16.904Z,15.00
2019-04-06T11:56:50.075Z,14.13
2019-04-06T11:59:20.411Z,15.08
2019-04-06T12:01:50.747Z,15.23
2019-04-06T12:04:30.404Z,16.20
2019-04-06T12:07:15.859Z,16.30
2019-04-06T12:09:49.096Z,15.23
2019-04-06T12:12:28.314Z,16.83
2019-04-06T12:15:01.708Z,16.67
2019-04-06T12:17:50.224Z,16.97
2019-04-06T12:20:20.734Z,17.07
2019-04-06T12:22:54.243Z,15.70
2019-04-06T12:25:39.875Z,15.63
2019-04-06T12:28:12.781Z,16.43
2019-04-06T12:30:43.217Z,16.40
2019-04-06T12:35:52.455Z,15.23
2019-04-06T12:38:24.928Z,14.77
2019-04-06T12:40:54.893Z,15.47
2019-04-06T12:43:31.091Z,16.13
2019-04-06T12:46:15.328Z,15.23
2019-04-06T12:48:48.460Z,14.57
2019-04-06T12:51:35.036Z,15.13
2019-04-06T12:54:08.254Z,15.53
2019-04-06T12:56:38.603Z,14.60
2019-04-06T12:59:11.943Z,14.37
2019-04-06T13:01:54.131Z,14.20
2019-04-06T13:04:27.556Z,14.57
2019-04-06T13:07:00.288Z,15.80
2019-04-06T13:09:36.543Z,14.30
2019-04-06T13:12:18.531Z,14.53
2019-04-06T13:14:48.872Z,14.90
2019-04-06T13:17:19.253Z,14.60
2019-04-06T13:19:55.527Z,14.87
2019-04-06T13:22:41.239Z,15.23
2019-04-06T13:25:17.654Z,13.77
2019-04-06T13:28:04.593Z,13.70
2019-04-06T13:30:44.063Z,13.87
2019-04-06T13:33:30.695Z,14.35
2019-04-06T13:36:01.286Z,12.50
2019-04-06T13:38:40.291Z,14.13
2019-04-06T13:41:26.955Z,12.82
2019-04-06T13:44:09.493Z,10.60
2019-04-06T13:46:42.381Z,11.18
2019-04-06T13:49:31.023Z,11.90
2019-04-06T13:52:16.462Z,10.98
2019-04-06T13:54:55.747Z,12.78
2019-04-06T13:57:26.077Z,11.83
2019-04-06T13:59:56.435Z,12.60
2019-04-06T14:02:26.955Z,12.53
2019-04-06T14:05:00.421Z,12.13
2019-04-06T14:07:45.872Z,10.70
2019-04-06T14:10:16.622Z,11.45
2019-04-06T14:12:49.615Z,11.38
2019-04-06T14:15:23.144Z,10.55
2019-04-06T14:17:59.372Z,11.75
2019-04-06T14:20:32.597Z,11.28
2019-04-06T14:23:08.495Z,11.35
2019-04-06T14:25:44.815Z,11.70
2019-04-06T14:28:30.148Z,12.28
2019-04-06T14:31:27.359Z,11.63
2019-04-06T14:34:05.176Z,10.95
2019-04-06T14:36:38.127Z,11.53
2019-04-06T14:39:17.998Z,10.32
2019-04-06T14:42:00.547Z,11.08
2019-04-06T14:44:47.703Z,10.03
2019-04-06T14:47:18.171Z,11.22
2019-04-06T14:49:57.005Z,10.50
2019-04-06T14:52:36.050Z,10.95
2019-04-06T14:55:07.007Z,8.80
2019-04-06T14:57:43.145Z,10.35
2019-04-06T15:00:13.667Z,10.53
2019-04-06T15:02:47.253Z,11.00
2019-04-06T15:05:26.506Z,9.95
2019-04-06T15:07:57.529Z,8.93
2019-04-06T15:10:30.565Z,8.53
2019-04-06T15:13:16.389Z,9.40
2019-04-06T15:15:58.808Z,9.55
2019-04-06T15:18:35.262Z,8.73
2019-04-06T15:21:05.701Z,7.47
2019-04-06T15:23:51.554Z,8.05
2019-04-06T15:26:21.844Z,8.45
2019-04-06T15:28:52.092Z,7.92
2019-04-06T15:31:31.467Z,7.78
2019-04-06T15:34:18.468Z,8.18
2019-04-06T15:36:58.219Z,7.78
2019-04-06T15:39:40.480Z,7.70
2019-04-06T15:42:13.808Z,7.70
2019-04-06T15:44:44.079Z,9.15
2019-04-06T15:47:26.808Z,7.20
2019-04-06T15:49:59.966Z,7.25
2019-04-06T15:52:46.796Z,8.15
2019-04-06T15:55:20.810Z,8.65
2019-04-06T15:57:54.396Z,8.10
2019-04-06T16:00:30.791Z,10.95
2019-04-06T16:03:01.418Z,8.68
2019-04-06T16:05:31.980Z,7.78
2019-04-06T16:08:18.515Z,11.20
2019-04-06T16:10:49.145Z,9.43
2019-04-06T16:13:25.466Z,8.40
2019-04-06T16:15:58.932Z,12.10
2019-04-06T16:18:32.674Z,9.05
2019-04-06T16:21:05.316Z,8.80
2019-04-06T16:23:35.551Z,7.25
2019-04-06T16:26:11.976Z,9.78
2019-04-06T16:28:45.445Z,15.50
2019-04-06T16:31:27.915Z,13.58
2019-04-06T16:34:04.039Z,12.15
2019-04-06T16:36:49.963Z,12.33
2019-04-06T16:39:20.525Z,12.00
2019-04-06T16:42:07.804Z,11.88
2019-04-06T16:44:40.958Z,11.22
2019-04-06T16:47:17.196Z,10.55
2019-04-06T16:49:47.605Z,9.60
2019-04-06T16:52:18.105Z,11.30
2019-04-06T16:54:49.319Z,10.38
2019-04-06T16:57:25.235Z,11.73
2019-04-06T16:59:58.306Z,12.63
2019-04-06T17:02:32.012Z,11.27
2019-04-06T17:05:04.908Z,13.93
2019-04-06T17:07:35.279Z,13.07
2019-04-06T17:10:17.015Z,13.43
2019-04-06T17:13:03.620Z,12.73
2019-04-06T17:15:52.219Z,12.90
2019-04-06T17:18:38.750Z,12.03
2019-04-06T17:21:09.345Z,13.23
2019-04-06T17:23:42.266Z,12.00
2019-04-06T17:26:31.292Z,13.10
2019-04-06T17:29:10.326Z,15.67
2019-04-06T17:31:44.152Z,13.73
2019-04-06T17:34:17.628Z,13.87
2019-04-06T17:37:03.052Z,13.97
2019-04-06T17:39:42.322Z,13.60
2019-04-06T17:42:22.387Z,13.40
2019-04-06T17:44:55.448Z,17.97
2019-04-06T17:47:31.948Z,19.80
2019-04-06T17:50:11.235Z,18.73
2019-04-06T17:52:47.521Z,17.17
2019-04-06T17:55:20.607Z,16.43
2019-04-06T17:57:59.786Z,16.50
2019-04-06T18:00:48.404Z,17.40
2019-04-06T18:03:34.142Z,16.20
2019-04-06T18:06:04.446Z,14.30
2019-04-06T18:08:40.872Z,13.27
2019-04-06T18:11:13.760Z,14.87
2019-04-06T18:13:52.781Z,14.43
2019-04-06T18:16:23.313Z,14.30
2019-04-06T18:18:52.592Z,12.77
2019-04-06T18:21:21.515Z,12.53
2019-04-06T18:23:50.611Z,13.47
2019-04-06T18:26:19.335Z,13.70
2019-04-06T18:28:48.333Z,11.27
2019-04-06T18:31:21.968Z,11.33
2019-04-06T18:33:50.546Z,11.23
2019-04-06T18:36:19.295Z,11.67
2019-04-06T18:38:49.743Z,12.60
2019-04-06T18:41:18.447Z,12.10
2019-04-06T18:43:47.181Z,12.90
2019-04-06T18:46:16.023Z,13.67
2019-04-06T18:48:44.707Z,12.27
2019-04-06T18:51:13.694Z,13.27
2019-04-06T18:53:42.526Z,13.83
2019-04-06T18:56:11.258Z,13.72
2019-04-06T18:58:39.999Z,13.60
2019-04-06T19:01:08.985Z,13.57
2019-04-06T19:03:37.858Z,14.00
2019-04-06T19:06:07.126Z,14.60
2019-04-06T19:08:35.864Z,14.17
2019-04-06T19:11:04.725Z,13.03
2019-04-06T19:13:33.337Z,13.23
2019-04-06T19:16:02.151Z,16.87
2019-04-06T19:18:30.785Z,15.23
2019-04-06T19:20:59.622Z,16.73
2019-04-06T19:23:28.411Z,17.00
2019-04-06T19:25:57.017Z,16.40
2019-04-06T19:28:25.691Z,17.20
2019-04-06T19:30:54.577Z,18.23
2019-04-06T19:33:25.625Z,15.80
2019-04-06T19:35:54.067Z,14.90
2019-04-06T19:38:22.787Z,14.03
2019-04-06T19:40:51.562Z,12.73
2019-04-06T19:43:20.252Z,13.17
2019-04-06T19:45:48.905Z,12.30
2019-04-06T19:48:17.676Z,13.47
2019-04-06T19:50:46.528Z,12.73
2019-04-06T19:53:15.219Z,14.03
2019-04-06T19:55:43.792Z,13.87
2019-04-06T19:58:12.599Z,17.07
2019-04-06T20:00:41.314Z,18.67
2019-04-06T20:03:10.130Z,16.60
2019-04-06T20:05:40.174Z,19.93
2019-04-06T20:08:09.721Z,18.57
2019-04-06T20:10:38.638Z,17.40
2019-04-06T20:13:07.503Z,18.00
2019-04-06T20:15:36.383Z,19.37
2019-04-06T20:18:05.143Z,18.60
2019-04-06T20:20:34.235Z,17.90
2019-04-06T20:23:02.859Z,16.87
2019-04-06T20:25:31.886Z,17.60
2019-04-06T20:28:00.552Z,18.40
2019-04-06T20:30:29.263Z,18.80
2019-04-06T20:32:57.909Z,19.07
2019-04-06T20:35:26.744Z,18.97
2019-04-06T20:37:55.568Z,17.50
2019-04-06T20:40:24.359Z,18.57
2019-04-06T20:42:53.079Z,17.63
2019-04-06T20:45:21.650Z,20.20
2019-04-06T20:47:50.694Z,18.70
2019-04-06T20:50:19.459Z,18.63
2019-04-06T20:52:48.187Z,19.63
2019-04-06T20:55:16.800Z,20.00
2019-04-06T20:57:45.454Z,19.97
2019-04-06T21:00:15.286Z,18.60
2019-04-06T21:02:44.104Z,16.43
2019-04-06T21:05:13.859Z,16.80
2019-04-06T21:07:42.432Z,18.10
2019-04-06T21:10:11.265Z,20.40
2019-04-06T21:12:40.013Z,20.43
2019-04-06T21:15:17.017Z,20.87
2019-04-06T21:17:39.831Z,19.57
2019-04-06T21:20:09.651Z,17.50
2019-04-06T21:22:38.588Z,17.03
2019-04-06T21:25:07.942Z,17.17
2019-04-06T21:27:37.492Z,17.30
2019-04-06T21:30:08.335Z,16.40
2019-04-06T21:32:37.219Z,16.07
2019-04-06T21:35:07.347Z,15.93
2019-04-06T21:37:36.018Z,15.90
2019-04-06T21:40:05.831Z,14.67
2019-04-06T21:42:34.572Z,15.40
2019-04-06T21:45:03.948Z,16.20
2019-04-06T21:47:32.739Z,15.80
2019-04-06T21:50:01.375Z,17.47
2019-04-06T21:52:29.953Z,15.47
2019-04-06T21:54:59.137Z,17.03
2019-04-06T21:57:27.908Z,16.13
2019-04-06T21:59:56.635Z,15.90
2019-04-06T22:02:25.338Z,16.47
2019-04-06T22:04:54.486Z,16.23
2019-04-06T22:07:23.345Z,15.80
2019-04-06T22:09:52.093Z,14.83
2019-04-06T22:12:20.787Z,18.30
2019-04-06T22:14:49.432Z,17.33
2019-04-06T22:17:18.679Z,20.27
2019-04-06T22:19:47.410Z,17.23
2019-04-06T22:22:16.043Z,18.00
2019-04-06T22:24:45.127Z,19.60
2019-04-06T22:27:14.202Z,19.63
2019-04-06T22:29:43.291Z,18.80
2019-04-06T22:32:13.061Z,20.80
2019-04-06T22:34:42.392Z,19.90
2019-04-06T22:37:11.530Z,19.60
2019-04-06T22:39:40.842Z,20.03
2019-04-06T22:42:09.917Z,20.40
2019-04-06T22:44:38.551Z,19.33
2019-04-06T22:47:07.443Z,17.07
2019-04-06T22:49:36.307Z,15.70
2019-04-06T22:52:05.288Z,15.10
2019-04-06T22:54:34.454Z,14.90
2019-04-06T22:57:03.223Z,15.40
2019-04-06T22:59:32.460Z,15.13
2019-04-06T23:02:01.323Z,14.33
2019-04-06T23:04:45.775Z,15.97
2019-04-06T23:07:09.224Z,16.30
2019-04-06T23:09:38.345Z,15.03
2019-04-06T23:12:07.443Z,16.60
2019-04-06T23:14:37.173Z,16.10
2019-04-06T23:17:06.328Z,16.23
2019-04-06T23:19:35.031Z,15.70
2019-04-06T23:22:03.797Z,16.07
2019-04-06T23:24:32.958Z,16.27
2019-04-06T23:27:01.632Z,16.93
2019-04-06T23:29:30.392Z,15.47
2019-04-06T23:31:59.031Z,15.03
2019-04-06T23:34:28.596Z,15.67
2019-04-06T23:36:57.793Z,16.03
2019-04-06T23:39:26.949Z,15.23
2019-04-06T23:41:55.744Z,15.63
2019-04-06T23:44:24.911Z,15.73
2019-04-06T23:46:53.675Z,15.07
2019-04-06T23:49:22.419Z,15.47
2019-04-06T23:51:52.002Z,15.87
2019-04-06T23:54:20.711Z,15.73
2019-04-06T23:56:49.674Z,15.40
2019-04-06T23:59:18.791Z,15.77
